Time;durP1;ratioP1;P1;durP2;ratioP2;P2;SDS_P1;SDS_P2;PMS_P1;PMS_P2;Temp;Humidity;BMP_temperature;BMP_pressure;BME280_temperature;BME280_humidity;BME280_pressure;Samples;Min_cycle;Max_cycle;Signal;HPM_P1;HPM_P2
2021/04/23 00:01:31;;;;;;;5.00;2.73;;;4.00;99.90;;;;;;5048882;28;20202;-85
2021/04/23 00:04:02;;;;;;;6.80;3.20;;;4.00;99.90;;;;;;5048351;28;20229;-87
2021/04/23 00:06:31;;;;;;;6.67;3.53;;;3.90;99.90;;;;;;5048521;28;20230;-87
2021/04/23 00:09:03;;;;;;;5.13;3.50;;;3.90;99.90;;;;;;5048500;28;20212;-87
2021/04/23 00:11:34;;;;;;;6.53;2.63;;;3.90;99.90;;;;;;5049072;28;20217;-87
2021/04/23 00:14:00;;;;;;;4.50;2.67;;;3.90;99.90;;;;;;5029837;28;20199;-88
2021/04/23 00:16:27;;;;;;;3.90;2.90;;;3.90;99.90;;;;;;5028586;28;20241;-86
2021/04/23 00:18:53;;;;;;;4.63;2.70;;;3.80;99.90;;;;;;5028671;28;20194;-85
2021/04/23 00:21:22;;;;;;;6.10;2.73;;;3.80;99.90;;;;;;5028850;28;20234;-86
2021/04/23 00:23:50;;;;;;;5.10;2.63;;;3.80;99.90;;;;;;5028536;28;20289;-86
2021/04/23 00:26:17;;;;;;;4.07;2.80;;;3.80;99.90;;;;;;5026552;28;20316;-85
2021/04/23 00:28:44;;;;;;;7.13;3.60;;;3.80;99.90;;;;;;5024301;28;20556;-86
2021/04/23 00:31:11;;;;;;;6.93;3.20;;;3.70;99.90;;;;;;5026325;28;20636;-85
2021/04/23 00:33:38;;;;;;;3.13;2.13;;;3.70;99.90;;;;;;5028213;28;20202;-87
2021/04/23 00:36:05;;;;;;;6.87;2.77;;;3.70;99.90;;;;;;5029952;28;20710;-88
2021/04/23 00:38:33;;;;;;;5.40;3.03;;;3.70;99.90;;;;;;5038999;28;20527;-87
2021/04/23 00:41:02;;;;;;;4.13;2.87;;;3.70;99.90;;;;;;5048950;28;20206;-88
2021/04/23 00:43:32;;;;;;;3.43;2.60;;;3.70;99.90;;;;;;5048998;28;20190;-86
2021/04/23 00:45:58;;;;;;;3.47;2.40;;;3.60;99.90;;;;;;5035082;28;20230;-88
2021/04/23 00:48:29;;;;;;;8.20;3.20;;;3.60;99.90;;;;;;5029311;28;20199;-86
2021/04/23 00:50:57;;;;;;;5.80;2.80;;;3.60;99.90;;;;;;5028848;28;20619;-86
2021/04/23 00:53:26;;;;;;;7.13;2.60;;;3.60;99.90;;;;;;5028542;28;20506;-86
2021/04/23 00:55:57;;;;;;;7.23;3.00;;;3.60;99.90;;;;;;5026692;28;20209;-84
2021/04/23 00:58:27;;;;;;;4.70;2.47;;;3.50;99.90;;;;;;5033020;28;20226;-88
2021/04/23 01:00:56;;;;;;;4.47;2.63;;;3.50;99.90;;;;;;5032819;28;20210;-87
2021/04/23 01:03:24;;;;;;;8.37;3.13;;;3.50;99.90;;;;;;5032331;28;20195;-87
2021/04/23 01:05:53;;;;;;;4.67;2.90;;;3.50;99.90;;;;;;5031786;28;20226;-87
2021/04/23 01:08:20;;;;;;;5.70;3.37;;;3.40;99.90;;;;;;5035963;28;20864;-86
2021/04/23 01:10:47;;;;;;;8.80;4.17;;;3.40;99.90;;;;;;5051904;28;20244;-86
2021/04/23 01:13:14;;;;;;;7.27;3.27;;;3.40;99.90;;;;;;5052660;28;20194;-85
2021/04/23 01:15:40;;;;;;;9.47;3.20;;;3.30;99.90;;;;;;5052004;28;20205;-85
2021/04/23 01:18:06;;;;;;;8.27;2.90;;;3.30;99.90;;;;;;5036374;28;20222;-83
2021/04/23 01:20:33;;;;;;;5.53;2.87;;;3.30;99.90;;;;;;5032208;28;20222;-83
2021/04/23 01:23:00;;;;;;;6.43;2.23;;;3.30;99.90;;;;;;5031446;28;20218;-87
2021/04/23 01:25:26;;;;;;;5.23;3.33;;;3.20;99.90;;;;;;5030955;28;20689;-87
2021/04/23 01:27:53;;;;;;;5.63;2.43;;;3.20;99.90;;;;;;5030611;28;20206;-88
2021/04/23 01:30:22;;;;;;;3.33;2.13;;;3.20;99.90;;;;;;5030051;28;20341;-84
2021/04/23 01:32:49;;;;;;;6.67;2.83;;;3.20;99.90;;;;;;5030513;28;20214;-83
2021/04/23 01:35:21;;;;;;;4.33;2.77;;;3.10;99.90;;;;;;5031170;28;20205;-88
2021/04/23 01:37:47;;;;;;;5.70;2.73;;;3.20;99.90;;;;;;5030915;28;20691;-85
2021/04/23 01:40:16;;;;;;;6.57;2.80;;;3.10;99.90;;;;;;5030165;28;20206;-83
2021/04/23 01:42:42;;;;;;;5.23;3.20;;;3.10;99.90;;;;;;5031379;28;20224;-84
2021/04/23 01:45:11;;;;;;;3.77;2.27;;;3.10;99.90;;;;;;5031043;28;20241;-86
2021/04/23 01:47:38;;;;;;;5.47;2.40;;;3.10;99.90;;;;;;5029573;28;20237;-88
2021/04/23 01:50:07;;;;;;;4.90;2.73;;;3.10;99.90;;;;;;5029746;28;20705;-85
2021/04/23 01:52:33;;;;;;;3.33;2.70;;;3.00;99.90;;;;;;5030529;28;20221;-88
2021/04/23 01:55:00;;;;;;;5.33;2.77;;;3.00;99.90;;;;;;5031590;28;20253;-85
2021/04/23 01:57:27;;;;;;;6.23;2.50;;;3.00;99.90;;;;;;5030936;28;20199;-84
2021/04/23 01:59:55;;;;;;;4.97;2.20;;;3.00;99.90;;;;;;5030773;28;20736;-83
2021/04/23 02:02:22;;;;;;;5.90;2.87;;;2.90;99.90;;;;;;5031281;28;20207;-82
2021/04/23 02:04:49;;;;;;;3.87;3.00;;;2.90;99.90;;;;;;5030733;28;20591;-84
2021/04/23 02:07:17;;;;;;;6.60;2.80;;;2.90;99.90;;;;;;5030596;28;20249;-86
2021/04/23 02:09:43;;;;;;;4.40;2.77;;;2.90;99.90;;;;;;5029937;28;20569;-86
2021/04/23 02:12:10;;;;;;;6.13;2.60;;;2.90;99.90;;;;;;5027959;28;20195;-89
2021/04/23 02:14:38;;;;;;;7.13;2.93;;;2.80;99.90;;;;;;5030015;28;20195;-87
2021/04/23 02:17:05;;;;;;;4.83;2.47;;;2.80;99.90;;;;;;5030307;28;20199;-88
2021/04/23 02:19:32;;;;;;;5.83;3.90;;;2.80;99.90;;;;;;5030448;28;20665;-87
2021/04/23 02:21:59;;;;;;;4.70;3.10;;;2.80;99.90;;;;;;5030686;28;20230;-83
2021/04/23 02:24:25;;;;;;;8.33;4.30;;;2.80;99.90;;;;;;5030661;28;20456;-84
2021/04/23 02:26:52;;;;;;;7.90;2.77;;;2.70;99.90;;;;;;5030320;28;20578;-84
2021/04/23 02:29:19;;;;;;;4.73;2.70;;;2.70;99.90;;;;;;5030370;28;20239;-88
2021/04/23 02:31:48;;;;;;;6.57;2.80;;;2.70;99.90;;;;;;5030112;28;20518;-87
2021/04/23 02:34:16;;;;;;;5.70;2.83;;;2.70;99.90;;;;;;5030773;28;20218;-84
2021/04/23 02:36:43;;;;;;;5.23;3.07;;;2.70;99.90;;;;;;5030047;28;20260;-86
2021/04/23 02:39:13;;;;;;;3.53;2.60;;;2.60;99.90;;;;;;5030680;28;20206;-86
2021/04/23 02:41:41;;;;;;;7.17;2.73;;;2.60;99.90;;;;;;5030131;28;20226;-86
2021/04/23 02:44:08;;;;;;;6.43;2.70;;;2.60;99.90;;;;;;5029521;28;20526;-84
2021/04/23 02:46:40;;;;;;;5.73;3.07;;;2.60;99.90;;;;;;5029714;28;20628;-84
2021/04/23 02:49:08;;;;;;;4.90;2.40;;;2.60;99.90;;;;;;5029619;28;20252;-84
2021/04/23 02:51:37;;;;;;;6.07;3.13;;;2.60;99.90;;;;;;5029739;28;20984;-87
2021/04/23 02:54:05;;;;;;;5.90;2.70;;;2.60;99.90;;;;;;5030031;28;20260;-88
2021/04/23 02:56:32;;;;;;;6.23;2.97;;;2.50;99.90;;;;;;5028683;28;20194;-86
2021/04/23 02:58:59;;;;;;;4.20;2.77;;;2.50;99.90;;;;;;5029928;28;20209;-88
2021/04/23 03:01:29;;;;;;;6.20;2.80;;;2.50;99.90;;;;;;5029562;28;20846;-86
2021/04/23 03:03:56;;;;;;;7.93;3.80;;;2.50;99.90;;;;;;5030506;28;20214;-87
2021/04/23 03:06:24;;;;;;;6.50;2.90;;;2.50;99.90;;;;;;5029475;28;20661;-86
2021/04/23 03:08:50;;;;;;;4.33;2.90;;;2.50;99.90;;;;;;5029444;28;20260;-84
2021/04/23 03:11:19;;;;;;;5.13;2.27;;;2.50;99.90;;;;;;5029894;28;20207;-88
2021/04/23 03:13:48;;;;;;;8.70;3.13;;;2.50;99.90;;;;;;5029549;28;20594;-86
2021/04/23 03:16:15;;;;;;;4.63;2.70;;;2.50;99.90;;;;;;5029260;28;20198;-85
2021/04/23 03:18:43;;;;;;;6.00;2.97;;;2.40;99.90;;;;;;5029480;28;20194;-86
2021/04/23 03:21:12;;;;;;;8.23;3.33;;;2.40;99.90;;;;;;5027831;28;20816;-87
2021/04/23 03:23:40;;;;;;;4.10;2.23;;;2.40;99.90;;;;;;5028508;28;20206;-85
2021/04/23 03:26:09;;;;;;;5.07;3.20;;;2.40;99.90;;;;;;5029307;28;20303;-88
2021/04/23 03:28:37;;;;;;;5.87;2.70;;;2.40;99.90;;;;;;5026414;28;20190;-86
2021/04/23 03:31:05;;;;;;;4.80;2.60;;;2.40;99.90;;;;;;5029017;28;20191;-85
2021/04/23 03:33:31;;;;;;;6.07;3.17;;;2.40;99.90;;;;;;5031611;28;20214;-83
2021/04/23 03:36:00;;;;;;;4.90;2.97;;;2.40;99.90;;;;;;5049282;28;20224;-86
2021/04/23 03:38:30;;;;;;;5.07;2.87;;;2.30;99.90;;;;;;5048772;28;20628;-81
2021/04/23 03:40:58;;;;;;;5.87;3.30;;;2.30;99.90;;;;;;5046483;28;20202;-87
2021/04/23 03:43:25;;;;;;;6.23;3.00;;;2.40;99.90;;;;;;5025396;28;20657;-86
2021/04/23 03:45:52;;;;;;;5.30;2.80;;;2.30;99.90;;;;;;5026166;28;20246;-86
2021/04/23 03:48:20;;;;;;;6.47;2.47;;;2.30;99.90;;;;;;5028727;28;20198;-85
2021/04/23 03:50:47;;;;;;;5.97;3.23;;;2.30;99.90;;;;;;5028388;28;20199;-84
2021/04/23 03:53:15;;;;;;;5.80;2.87;;;2.30;99.90;;;;;;5029071;28;20669;-83
2021/04/23 03:55:45;;;;;;;5.40;3.03;;;2.30;99.90;;;;;;5028625;28;20210;-84
2021/04/23 03:58:13;;;;;;;6.70;3.17;;;2.30;99.90;;;;;;5028352;28;20214;-83
2021/04/23 04:00:42;;;;;;;8.13;3.00;;;2.20;99.90;;;;;;5028897;28;20210;-82
2021/04/23 04:03:09;;;;;;;7.30;2.93;;;2.20;99.90;;;;;;5028412;28;20190;-86
2021/04/23 04:05:36;;;;;;;5.47;3.00;;;2.20;99.90;;;;;;5025390;28;20206;-87
2021/04/23 04:08:04;;;;;;;8.13;2.80;;;2.20;99.90;;;;;;5025868;28;20245;-84
2021/04/23 04:10:31;;;;;;;5.90;3.30;;;2.20;99.90;;;;;;5028073;28;20207;-83
2021/04/23 04:12:57;;;;;;;6.53;2.60;;;2.20;99.90;;;;;;5033677;28;20212;-83
2021/04/23 04:15:27;;;;;;;5.83;3.17;;;2.20;99.90;;;;;;5048286;28;20218;-84
2021/04/23 04:17:54;;;;;;;7.23;3.23;;;2.20;99.90;;;;;;5048437;28;20606;-84
2021/04/23 04:20:21;;;;;;;5.37;2.70;;;2.20;99.90;;;;;;5047120;28;20237;-82
2021/04/23 04:22:48;;;;;;;6.30;3.00;;;2.20;99.90;;;;;;5047962;28;20198;-84
2021/04/23 04:25:19;;;;;;;5.67;2.90;;;2.20;99.90;;;;;;5048075;28;20202;-84
2021/04/23 04:27:45;;;;;;;6.37;3.10;;;2.20;99.90;;;;;;5039244;28;20280;-83
2021/04/23 04:30:13;;;;;;;7.73;4.17;;;2.20;99.90;;;;;;5029009;28;20205;-84
2021/04/23 04:32:41;;;;;;;5.60;3.47;;;2.20;99.90;;;;;;5031317;28;20209;-83
2021/04/23 04:35:08;;;;;;;5.80;3.67;;;2.20;99.90;;;;;;5032708;28;20210;-85
2021/04/23 04:37:34;;;;;;;4.80;2.83;;;2.20;99.90;;;;;;5032203;28;20207;-84
2021/04/23 04:40:01;;;;;;;6.23;2.90;;;2.20;99.90;;;;;;5032003;28;20205;-85
2021/04/23 04:42:28;;;;;;;7.57;3.53;;;2.20;99.90;;;;;;5031996;28;20214;-86
2021/04/23 04:45:00;;;;;;;4.93;2.27;;;2.20;99.90;;;;;;5031021;28;20246;-83
2021/04/23 04:47:27;;;;;;;5.30;3.03;;;2.20;99.90;;;;;;5029508;28;20678;-86
2021/04/23 04:49:54;;;;;;;5.07;3.10;;;2.20;99.90;;;;;;5040938;28;20206;-84
2021/04/23 04:52:20;;;;;;;5.73;2.77;;;2.20;99.90;;;;;;5051553;28;20206;-84
2021/04/23 04:54:47;;;;;;;8.00;3.53;;;2.20;99.90;;;;;;5036925;28;20218;-86
2021/04/23 04:57:13;;;;;;;5.50;3.07;;;2.30;99.90;;;;;;5032438;28;20401;-85
2021/04/23 04:59:42;;;;;;;4.87;2.97;;;2.30;99.90;;;;;;5044747;28;20198;-86
2021/04/23 05:02:08;;;;;;;6.33;2.97;;;2.30;99.90;;;;;;5051426;28;20206;-85
2021/04/23 05:04:35;;;;;;;3.93;3.10;;;2.40;99.90;;;;;;5050987;28;20209;-84
2021/04/23 05:07:02;;;;;;;4.90;2.53;;;2.50;99.90;;;;;;5042712;28;20218;-83
2021/04/23 05:09:28;;;;;;;7.10;3.20;;;2.50;99.90;;;;;;5026737;28;20206;-84
2021/04/23 05:11:55;;;;;;;8.37;4.00;;;2.60;99.90;;;;;;5031982;28;20230;-84
2021/04/23 05:14:21;;;;;;;8.03;3.73;;;2.70;99.90;;;;;;5034952;28;20739;-85
2021/04/23 05:16:48;;;;;;;7.77;3.40;;;2.70;99.90;;;;;;5051484;28;20207;-86
2021/04/23 05:19:14;;;;;;;6.83;3.53;;;2.80;99.90;;;;;;5047302;28;20610;-85
2021/04/23 05:21:40;;;;;;;5.87;3.23;;;2.80;99.90;;;;;;5032346;28;20221;-87
2021/04/23 05:24:08;;;;;;;6.07;3.57;;;2.90;99.90;;;;;;5014297;28;20199;-86
2021/04/23 05:26:34;;;;;;;6.33;3.40;;;3.00;99.90;;;;;;5027551;28;20541;-86
2021/04/23 05:29:01;;;;;;;5.93;3.20;;;3.10;99.90;;;;;;5028134;28;20210;-86
2021/04/23 05:31:27;;;;;;;6.97;3.37;;;3.10;99.90;;;;;;5030233;28;20210;-84
2021/04/23 05:33:53;;;;;;;10.43;3.67;;;3.20;99.90;;;;;;5031039;28;20249;-84
2021/04/23 05:36:19;;;;;;;8.03;3.33;;;3.30;99.90;;;;;;5030876;28;20229;-84
2021/04/23 05:38:46;;;;;;;6.70;3.53;;;3.40;99.90;;;;;;5047329;28;20214;-86
2021/04/23 05:41:13;;;;;;;6.73;3.50;;;3.40;99.90;;;;;;5047746;28;20209;-86
2021/04/23 05:43:41;;;;;;;9.67;4.13;;;3.50;99.90;;;;;;5045874;28;20209;-85
2021/04/23 05:46:08;;;;;;;9.20;3.97;;;3.50;99.90;;;;;;5049575;28;20214;-85
2021/04/23 05:48:34;;;;;;;7.83;3.63;;;3.60;99.90;;;;;;5051260;28;20209;-86
2021/04/23 05:51:01;;;;;;;7.60;3.80;;;3.60;99.90;;;;;;5041124;28;20213;-85
2021/04/23 05:53:27;;;;;;;7.60;4.33;;;3.70;99.90;;;;;;5030599;28;20214;-84
2021/04/23 05:55:54;;;;;;;7.07;3.67;;;3.80;99.90;;;;;;5031007;28;20203;-84
2021/04/23 05:58:21;;;;;;;8.90;4.33;;;3.90;99.90;;;;;;5030904;28;20214;-82
2021/04/23 06:00:48;;;;;;;10.83;4.57;;;4.00;99.90;;;;;;5030263;28;20214;-84
2021/04/23 06:03:14;;;;;;;5.80;3.83;;;4.00;99.90;;;;;;5030263;28;20286;-86
2021/04/23 06:05:41;;;;;;;9.13;4.90;;;4.10;99.90;;;;;;5030164;28;20210;-86
2021/04/23 06:08:10;;;;;;;10.97;4.87;;;4.20;99.90;;;;;;5030840;28;20226;-85
2021/04/23 06:10:37;;;;;;;9.87;4.43;;;4.30;99.90;;;;;;5047620;28;20233;-85
2021/04/23 06:13:04;;;;;;;11.53;4.97;;;4.40;99.90;;;;;;5049149;28;20230;-88
2021/04/23 06:15:32;;;;;;;8.87;3.87;;;4.60;99.90;;;;;;5035844;28;20577;-84
2021/04/23 06:17:58;;;;;;;8.07;3.90;;;4.80;99.90;;;;;;5029772;28;20282;-84
2021/04/23 06:20:28;;;;;;;4.83;3.20;;;4.90;99.90;;;;;;5048722;28;20218;-82
2021/04/23 06:22:56;;;;;;;13.17;4.50;;;5.10;99.90;;;;;;5045793;28;20202;-84
2021/04/23 06:25:24;;;;;;;9.63;4.10;;;5.30;99.90;;;;;;5027217;28;20201;-83
2021/04/23 06:27:52;;;;;;;9.23;4.20;;;5.50;99.90;;;;;;5029290;28;20281;-82
2021/04/23 06:30:21;;;;;;;9.43;4.10;;;5.70;99.90;;;;;;5028873;28;20241;-84
2021/04/23 06:32:49;;;;;;;9.40;4.53;;;6.00;99.90;;;;;;5028430;28;20206;-84
2021/04/23 06:35:16;;;;;;;9.93;4.70;;;6.20;99.90;;;;;;5027868;28;20203;-84
2021/04/23 06:37:43;;;;;;;15.93;4.90;;;6.50;99.90;;;;;;5027813;28;20194;-81
2021/04/23 06:40:11;;;;;;;11.43;4.03;;;6.70;99.90;;;;;;5028043;28;20217;-84
2021/04/23 06:45:59;;;;;;;11.20;3.43;;;7.00;99.90;;;;;;5013323;28;20719;-85
2021/04/23 06:48:29;;;;;;;11.87;3.97;;;7.20;99.90;;;;;;5026618;28;20210;-85
2021/04/23 06:50:55;;;;;;;8.07;3.63;;;7.20;99.90;;;;;;5027647;28;20214;-85
2021/04/23 06:53:24;;;;;;;7.57;2.77;;;7.40;99.90;;;;;;5028839;28;20194;-85
2021/04/23 06:55:51;;;;;;;9.90;4.23;;;7.50;99.90;;;;;;5028465;28;20371;-85
2021/04/23 06:58:18;;;;;;;4.63;2.60;;;7.70;99.90;;;;;;5029694;28;20221;-86
2021/04/23 07:00:44;;;;;;;10.00;2.60;;;8.10;99.90;;;;;;5030120;28;20198;-87
2021/04/23 07:03:11;;;;;;;9.40;3.07;;;8.40;99.90;;;;;;5030037;28;20206;-85
2021/04/23 07:05:40;;;;;;;10.63;3.17;;;8.80;99.90;;;;;;5029717;28;20352;-87
2021/04/23 07:08:07;;;;;;;7.67;2.90;;;9.20;99.90;;;;;;5029321;28;20234;-81
2021/04/23 07:10:34;;;;;;;7.03;2.67;;;9.60;99.90;;;;;;5029440;28;20209;-85
2021/04/23 07:13:01;;;;;;;12.37;2.70;;;9.90;99.90;;;;;;5029489;28;20590;-82
2021/04/23 07:15:33;;;;;;;8.67;2.90;;;10.10;99.90;;;;;;5028861;28;20236;-86
2021/04/23 07:18:01;;;;;;;6.90;2.53;;;10.20;99.90;;;;;;5029597;28;20509;-86
2021/04/23 07:20:27;;;;;;;7.90;2.30;;;10.50;99.90;;;;;;5028051;28;20234;-84
2021/04/23 07:22:54;;;;;;;8.20;2.90;;;10.80;99.90;;;;;;5026119;28;20211;-86
2021/04/23 07:25:22;;;;;;;6.47;2.20;;;11.00;99.90;;;;;;5028937;28;20256;-84
2021/04/23 07:27:50;;;;;;;9.77;3.57;;;11.10;99.90;;;;;;5029283;28;20378;-85
2021/04/23 07:30:19;;;;;;;9.90;2.77;;;11.20;99.90;;;;;;5027851;28;20696;-85
2021/04/23 07:32:46;;;;;;;7.63;2.40;;;11.20;99.90;;;;;;5027602;28;20227;-85
2021/04/23 07:35:14;;;;;;;4.93;1.90;;;11.60;99.90;;;;;;5028117;28;20198;-87
2021/04/23 07:37:40;;;;;;;6.70;1.70;;;11.80;99.90;;;;;;5028058;28;20205;-86
2021/04/23 07:40:11;;;;;;;8.33;1.80;;;12.00;99.90;;;;;;5029678;28;20459;-83
2021/04/23 07:42:38;;;;;;;6.17;2.13;;;12.30;99.90;;;;;;5028175;28;20199;-80
2021/04/23 07:45:06;;;;;;;7.80;2.00;;;12.60;99.90;;;;;;5029015;28;20234;-84
2021/04/23 07:47:33;;;;;;;10.37;2.23;;;12.80;99.90;;;;;;5028231;28;20248;-85
2021/04/23 07:50:00;;;;;;;9.17;2.47;;;13.00;99.90;;;;;;5028406;28;20206;-84
2021/04/23 07:52:27;;;;;;;6.30;1.83;;;13.10;99.90;;;;;;5042648;28;20220;-87
2021/04/23 07:54:53;;;;;;;10.97;2.20;;;12.80;99.90;;;;;;5048165;28;20205;-86
2021/04/23 07:57:21;;;;;;;5.27;1.50;;;12.90;99.90;;;;;;5047051;28;20973;-88
2021/04/23 07:59:47;;;;;;;6.90;2.17;;;13.00;99.90;;;;;;5047511;28;20202;-87
2021/04/23 08:02:14;;;;;;;4.20;1.63;;;13.10;99.90;;;;;;5047699;28;20205;-84
2021/04/23 08:04:40;;;;;;;8.53;2.30;;;13.00;99.90;;;;;;5036484;22;20324;-88
2021/04/23 08:07:07;;;;;;;7.37;1.77;;;12.90;99.90;;;;;;5047673;28;20221;-85
2021/04/23 08:09:34;;;;;;;6.13;2.00;;;12.90;99.90;;;;;;5048126;28;20202;-83
2021/04/23 08:12:00;;;;;;;7.27;2.13;;;13.00;99.90;;;;;;5046644;28;20209;-81
2021/04/23 08:14:28;;;;;;;7.43;2.30;;;13.20;99.90;;;;;;5047165;28;20582;-86
2021/04/23 08:16:54;;;;;;;8.30;1.90;;;13.50;99.90;;;;;;5046802;28;20202;-84
2021/04/23 08:19:20;;;;;;;10.03;3.00;;;13.50;99.90;;;;;;5046431;28;20225;-84
2021/04/23 08:21:47;;;;;;;8.53;2.07;;;13.50;99.90;;;;;;5047633;28;20236;-85
2021/04/23 08:24:14;;;;;;;5.63;1.90;;;13.70;99.90;;;;;;5048856;28;20496;-85
2021/04/23 08:26:43;;;;;;;7.07;2.27;;;13.90;99.90;;;;;;5047590;28;20236;-84
2021/04/23 08:29:10;;;;;;;6.17;1.97;;;14.10;99.90;;;;;;5046632;28;20213;-84
2021/04/23 08:31:38;;;;;;;4.80;1.80;;;14.30;99.90;;;;;;5047062;28;20208;-85
2021/04/23 08:34:04;;;;;;;7.63;2.20;;;14.60;99.90;;;;;;5048331;28;20662;-84
2021/04/23 08:36:31;;;;;;;7.80;2.10;;;15.00;99.90;;;;;;5045648;28;20214;-86
2021/04/23 08:38:57;;;;;;;4.53;2.10;;;14.70;99.90;;;;;;5044937;28;20190;-85
2021/04/23 08:41:24;;;;;;;6.40;2.50;;;14.20;99.90;;;;;;5048210;28;20194;-85
2021/04/23 08:43:50;;;;;;;4.20;1.50;;;14.10;99.90;;;;;;5047397;28;20240;-85
2021/04/23 08:46:16;;;;;;;8.40;2.23;;;14.30;99.90;;;;;;5045450;28;20339;-83
2021/04/23 08:48:47;;;;;;;10.27;2.73;;;14.30;99.90;;;;;;5047367;28;20279;-85
2021/04/23 08:51:15;;;;;;;6.13;1.60;;;14.40;99.90;;;;;;5046972;28;20905;-84
2021/04/23 08:53:42;;;;;;;8.77;1.90;;;14.50;99.90;;;;;;5046136;28;20190;-84
2021/04/23 08:56:08;;;;;;;5.47;2.20;;;14.50;99.90;;;;;;5047459;28;20210;-80
2021/04/23 08:58:35;;;;;;;7.77;1.80;;;14.60;99.90;;;;;;5045480;28;20202;-83
2021/04/23 09:01:01;;;;;;;5.83;1.93;;;14.80;99.90;;;;;;5046794;28;20289;-83
2021/04/23 09:03:29;;;;;;;7.27;2.30;;;14.70;99.90;;;;;;5045932;28;20911;-81
2021/04/23 09:06:10;;;;;;;6.73;2.10;;;14.80;99.90;;;;;;5046209;28;20555;-83
2021/04/23 09:08:38;;;;;;;6.27;1.93;;;15.00;99.90;;;;;;5044051;28;20210;-82
2021/04/23 09:11:14;;;;;;;6.83;2.10;;;15.00;99.90;;;;;;5044762;28;20213;-80
2021/04/23 09:13:49;;;;;;;7.53;1.97;;;14.90;99.90;;;;;;5044097;28;20201;-82
2021/04/23 09:16:18;;;;;;;8.20;2.07;;;14.80;99.90;;;;;;5025171;28;20206;-80
2021/04/23 09:18:44;;;;;;;5.20;2.00;;;14.60;99.90;;;;;;5026232;28;20680;-79
2021/04/23 09:21:14;;;;;;;8.97;2.00;;;14.10;99.90;;;;;;5028464;28;20222;-84
2021/04/23 09:23:48;;;;;;;7.97;1.90;;;13.90;99.90;;;;;;5031565;28;20317;-85
2021/04/23 09:26:32;;;;;;;5.40;2.00;;;13.70;99.90;;;;;;5047421;28;20285;-78
2021/04/23 09:28:59;;;;;;;5.87;1.80;;;13.40;99.90;;;;;;5047952;28;20214;-80
2021/04/23 09:31:27;;;;;;;6.77;2.63;;;13.50;99.90;;;;;;5049720;28;20217;-82
2021/04/23 09:33:55;;;;;;;7.70;1.97;;;13.70;99.90;;;;;;5048651;28;20548;-85
2021/04/23 09:36:31;;;;;;;10.20;2.10;;;14.10;99.90;;;;;;5050274;28;20262;-85
2021/04/23 09:39:06;;;;;;;8.50;2.20;;;14.50;99.90;;;;;;5050242;28;20671;-86
2021/04/23 09:41:33;;;;;;;9.40;2.33;;;14.80;99.90;;;;;;5050522;28;20202;-83
2021/04/23 09:43:59;;;;;;;6.20;1.90;;;15.00;99.90;;;;;;5050910;28;20559;-85
2021/04/23 09:46:33;;;;;;;7.93;2.30;;;14.80;99.90;;;;;;5049846;28;20236;-85
2021/04/23 09:49:16;;;;;;;6.93;1.87;;;14.60;99.90;;;;;;5050668;28;20287;-87
2021/04/23 09:51:43;;;;;;;7.30;2.40;;;14.80;99.90;;;;;;5030685;28;20213;-86
2021/04/23 09:54:14;;;;;;;7.43;2.23;;;14.80;99.90;;;;;;5031150;28;20203;-88
2021/04/23 09:56:41;;;;;;;4.80;1.63;;;14.90;99.90;;;;;;5042527;28;20217;-85
2021/04/23 09:59:25;;;;;;;7.90;2.60;;;15.00;99.90;;;;;;5051445;28;20221;-84
2021/04/23 10:01:57;;;;;;;6.73;2.23;;;15.10;99.90;;;;;;5049207;28;20529;-83
2021/04/23 10:04:27;;;;;;;4.37;1.67;;;15.30;99.90;;;;;;5050125;28;20233;-84
2021/04/23 10:07:12;;;;;;;8.07;2.87;;;15.10;99.90;;;;;;5049424;28;20233;-82
2021/04/23 10:09:54;;;;;;;7.43;1.93;;;14.80;99.90;;;;;;5047590;28;20206;-86
2021/04/23 10:12:35;;;;;;;6.27;1.90;;;14.90;99.90;;;;;;5047572;28;20205;-81
2021/04/23 10:15:08;;;;;;;6.97;1.83;;;15.20;99.90;;;;;;5028776;28;20191;-82
2021/04/23 10:17:34;;;;;;;6.80;1.80;;;15.40;99.90;;;;;;5028314;28;20310;-83
2021/04/23 10:20:01;;;;;;;5.80;2.10;;;15.60;99.90;;;;;;5029176;28;20236;-83
2021/04/23 10:22:28;;;;;;;6.00;2.03;;;15.70;99.90;;;;;;5043792;28;20216;-84
2021/04/23 10:24:55;;;;;;;6.57;1.80;;;15.60;99.90;;;;;;5048400;28;20202;-83
2021/04/23 10:27:22;;;;;;;6.87;2.63;;;15.70;99.90;;;;;;5048423;28;20280;-84
2021/04/23 10:29:51;;;;;;;7.20;1.93;;;15.90;99.90;;;;;;5047497;28;20301;-84
2021/04/23 10:32:18;;;;;;;6.07;1.70;;;15.90;99.90;;;;;;5047266;28;20221;-84
2021/04/23 10:34:45;;;;;;;8.63;2.20;;;15.70;99.90;;;;;;5048736;28;20260;-82
2021/04/23 10:37:13;;;;;;;5.40;1.73;;;15.50;99.90;;;;;;5046799;28;20263;-84
2021/04/23 10:39:43;;;;;;;7.93;2.20;;;15.30;99.90;;;;;;5044454;28;20206;-83
2021/04/23 10:42:41;;;;;;;8.77;2.20;;;15.10;99.90;;;;;;5046267;28;20943;-82
2021/04/23 10:45:22;;;;;;;6.27;2.40;;;15.10;99.90;;;;;;5045749;28;20255;-81
2021/04/23 10:47:49;;;;;;;6.27;2.10;;;15.30;99.90;;;;;;5047531;28;20225;-79
2021/04/23 10:50:18;;;;;;;7.17;2.10;;;15.40;99.90;;;;;;5048834;28;20293;-83
2021/04/23 10:53:07;;;;;;;7.50;2.20;;;15.70;99.90;;;;;;5048889;28;20214;-87
2021/04/23 10:55:54;;;;;;;7.77;2.10;;;15.90;99.90;;;;;;5048301;28;20217;-82
2021/04/23 10:58:37;;;;;;;7.07;1.63;;;16.10;99.90;;;;;;5050137;28;20202;-86
2021/04/23 11:01:21;;;;;;;7.35;2.20;;;16.20;99.90;;;;;;5048272;28;20205;-83
2021/04/23 11:04:18;;;;;;;8.70;2.37;;;16.10;99.90;;;;;;5029058;28;20207;-86
2021/04/23 11:06:51;;;;;;;6.93;1.93;;;16.10;99.90;;;;;;5028757;28;20241;-83
2021/04/23 11:09:22;;;;;;;6.40;2.47;;;15.70;99.90;;;;;;5030109;28;20201;-82
2021/04/23 11:12:13;;;;;;;6.27;2.50;;;15.40;99.90;;;;;;5044698;28;20673;-83
2021/04/23 11:14:40;;;;;;;9.87;2.23;;;15.40;99.90;;;;;;5050138;28;20645;-90
2021/04/23 11:17:32;;;;;;;9.23;2.40;;;15.50;99.90;;;;;;5049949;28;20201;-88
2021/04/23 11:19:59;;;;;;;10.20;2.50;;;15.60;99.90;;;;;;5049610;28;20649;-84
2021/04/23 11:22:27;;;;;;;7.03;2.13;;;15.50;99.90;;;;;;5048948;28;20267;-86
2021/04/23 11:25:06;;;;;;;5.47;2.37;;;15.50;99.90;;;;;;5048281;28;20571;-87
2021/04/23 11:27:34;;;;;;;6.63;2.13;;;15.60;99.90;;;;;;5047762;28;20233;-86
2021/04/23 11:30:09;;;;;;;6.17;2.20;;;15.70;99.90;;;;;;5048376;28;20205;-83
2021/04/23 11:32:37;;;;;;;12.20;2.37;;;15.90;99.90;;;;;;5048092;28;20209;-91
2021/04/23 11:35:25;;;;;;;7.32;2.08;;;16.10;99.90;;;;;;5047110;28;20942;-82
2021/04/23 11:37:53;;;;;;;9.88;2.75;;;16.20;99.90;;;;;;5036828;28;20202;-93
2021/04/23 11:40:24;;;;;;;7.57;2.28;;;15.90;99.90;;;;;;5044660;28;20654;-85
2021/04/23 11:42:53;;;;;;;4.75;1.88;;;15.60;99.90;;;;;;5044252;28;20210;-89
2021/04/23 11:45:21;;;;;;;7.23;2.20;;;15.50;99.90;;;;;;5044751;28;20287;-85
2021/04/23 11:47:49;;;;;;;5.47;2.00;;;15.80;99.90;;;;;;5045299;28;20221;-85
2021/04/23 11:50:19;;;;;;;5.00;2.20;;;15.90;99.90;;;;;;5043455;28;20264;-86
2021/04/23 11:52:47;;;;;;;4.72;1.88;;;16.00;99.90;;;;;;5044299;28;20198;-85
2021/04/23 11:55:17;;;;;;;6.32;2.10;;;16.00;99.90;;;;;;5044701;28;20206;-85
2021/04/23 11:57:45;;;;;;;4.07;2.10;;;15.80;99.90;;;;;;5045957;28;20198;-86
2021/04/23 12:00:15;;;;;;;7.63;2.33;;;15.90;99.90;;;;;;5047767;28;20236;-83
2021/04/23 12:02:52;;;;;;;5.35;2.03;;;15.90;99.90;;;;;;5046901;28;20240;-85
2021/04/23 12:05:30;;;;;;;7.75;1.92;;;15.80;99.90;;;;;;5046282;28;20245;-86
2021/04/23 12:07:58;;;;;;;6.60;1.90;;;15.90;99.90;;;;;;5046185;28;20240;-83
2021/04/23 12:10:26;;;;;;;8.73;2.45;;;16.10;99.90;;;;;;5045095;28;20607;-87
2021/04/23 12:12:53;;;;;;;6.70;1.70;;;16.10;99.90;;;;;;5048153;28;20541;-88
2021/04/23 12:15:26;;;;;;;10.32;2.38;;;16.10;99.90;;;;;;5045856;28;20630;-79
2021/04/23 12:17:53;;;;;;;6.18;1.92;;;16.10;99.90;;;;;;5045067;28;20202;-85
2021/04/23 12:20:22;;;;;;;8.93;2.23;;;15.80;99.90;;;;;;5035010;28;20234;-85
2021/04/23 12:22:49;;;;;;;9.50;2.17;;;15.90;99.90;;;;;;5028305;28;20203;-90
2021/04/23 12:25:27;;;;;;;4.80;1.67;;;15.90;99.90;;;;;;5040405;28;20665;-82
2021/04/23 12:27:53;;;;;;;5.90;1.77;;;15.90;99.90;;;;;;5044282;28;20240;-88
2021/04/23 12:30:32;;;;;;;8.27;2.30;;;15.90;99.90;;;;;;5046227;28;20950;-82
2021/04/23 12:32:59;;;;;;;8.07;2.20;;;15.80;99.90;;;;;;5046482;28;20206;-84
2021/04/23 12:35:37;;;;;;;3.15;1.58;;;15.70;99.90;;;;;;5026476;28;20748;-86
2021/04/23 12:38:08;;;;;;;7.27;1.80;;;15.70;99.90;;;;;;5026728;28;20195;-80
2021/04/23 12:40:38;;;;;;;10.43;2.90;;;15.70;99.90;;;;;;5028006;28;20203;-91
2021/04/23 12:43:19;;;;;;;6.03;2.23;;;15.70;99.90;;;;;;5030653;28;20519;-85
2021/04/23 12:45:49;;;;;;;3.87;1.60;;;15.70;99.90;;;;;;5036402;28;20216;-84
2021/04/23 12:48:16;;;;;;;7.47;2.30;;;15.40;99.90;;;;;;5045931;28;20237;-84
2021/04/23 12:50:43;;;;;;;9.37;2.17;;;15.50;99.90;;;;;;5046885;28;20255;-79
2021/04/23 12:53:10;;;;;;;8.13;2.27;;;15.60;99.90;;;;;;5048432;28;20238;-81
2021/04/23 12:55:39;;;;;;;8.37;2.13;;;15.70;99.90;;;;;;5048824;28;20214;-91
2021/04/23 12:58:07;;;;;;;6.10;1.98;;;15.80;99.90;;;;;;5049643;28;20198;-89
2021/04/23 13:00:35;;;;;;;8.03;2.17;;;15.90;99.90;;;;;;5048161;28;20201;-87
2021/04/23 13:03:03;;;;;;;7.47;2.28;;;15.80;99.90;;;;;;5047322;28;20289;-88
2021/04/23 13:05:30;;;;;;;7.97;2.30;;;15.80;99.90;;;;;;5048209;28;20463;-88